createdAt,value
2023-04-09T00:01:04.481Z,12.72
2023-04-09T00:03:32.731Z,12.85
2023-04-09T00:06:00.844Z,12.75
2023-04-09T00:08:28.610Z,12.77
2023-04-09T00:10:57.925Z,12.76
2023-04-09T00:13:38.377Z,12.75
2023-04-09T00:16:08.193Z,12.45
2023-04-09T00:18:36.385Z,12.40
2023-04-09T00:21:04.159Z,12.56
2023-04-09T00:23:31.484Z,12.70
2023-04-09T00:25:58.774Z,12.67
2023-04-09T00:28:26.509Z,12.77
2023-04-09T00:30:53.758Z,12.66
2023-04-09T00:33:21.549Z,11.83
2023-04-09T00:35:49.376Z,11.54
2023-04-09T00:38:17.107Z,11.56
2023-04-09T00:40:44.928Z,11.51
2023-04-09T00:43:12.735Z,11.52
2023-04-09T00:45:40.916Z,11.58
2023-04-09T00:48:09.261Z,11.48
2023-04-09T00:50:37.137Z,11.52
2023-04-09T00:53:06.312Z,11.39
2023-04-09T00:55:34.137Z,11.60
2023-04-09T00:58:02.239Z,11.70
2023-04-09T01:00:29.715Z,11.81
2023-04-09T01:02:58.198Z,11.83
2023-04-09T01:05:31.831Z,11.79
2023-04-09T01:08:00.375Z,11.88
2023-04-09T01:10:47.398Z,11.86
2023-04-09T01:13:24.500Z,11.87
2023-04-09T01:15:54.564Z,11.88
2023-04-09T01:18:29.261Z,11.66
2023-04-09T01:21:02.766Z,11.52
2023-04-09T01:23:37.395Z,11.48
2023-04-09T01:26:19.348Z,11.59
2023-04-09T01:28:56.722Z,11.56
2023-04-09T01:31:29.845Z,11.59
2023-04-09T01:33:58.444Z,11.58
2023-04-09T01:36:27.578Z,11.66
2023-04-09T01:38:56.460Z,11.61
2023-04-09T01:41:26.129Z,11.58
2023-04-09T01:43:53.876Z,11.61
2023-04-09T01:46:22.274Z,11.64
2023-04-09T01:48:51.086Z,11.73
2023-04-09T01:51:19.420Z,11.69
2023-04-09T01:53:47.370Z,11.71
2023-04-09T01:56:15.344Z,11.55
2023-04-09T01:58:42.645Z,11.50
2023-04-09T02:01:13.709Z,11.55
2023-04-09T02:03:49.182Z,11.56
2023-04-09T02:06:21.189Z,11.66
2023-04-09T02:08:51.059Z,11.76
2023-04-09T02:11:21.248Z,11.84
2023-04-09T02:13:49.694Z,11.84
2023-04-09T02:16:17.438Z,11.95
2023-04-09T02:18:45.758Z,11.96
2023-04-09T02:21:13.905Z,12.04
2023-04-09T02:23:42.141Z,11.96
2023-04-09T02:26:10.313Z,11.98
2023-04-09T02:28:37.779Z,11.99
2023-04-09T02:31:05.607Z,12.02
2023-04-09T02:33:34.163Z,12.00
2023-04-09T02:36:01.600Z,12.00
2023-04-09T02:38:28.992Z,12.12
2023-04-09T02:40:56.789Z,11.88
2023-04-09T02:43:24.602Z,11.77
2023-04-09T02:45:52.039Z,11.74
2023-04-09T02:48:20.602Z,11.72
2023-04-09T02:50:47.990Z,11.83
2023-04-09T02:53:15.824Z,11.78
2023-04-09T02:55:43.659Z,11.77
2023-04-09T02:58:11.492Z,11.82
2023-04-09T03:00:38.846Z,11.88
2023-04-09T03:03:06.447Z,11.93
2023-04-09T03:05:34.339Z,11.82
2023-04-09T03:08:02.662Z,11.94
2023-04-09T03:10:30.588Z,11.97
2023-04-09T03:12:58.741Z,12.05
2023-04-09T03:15:26.669Z,12.19
2023-04-09T03:17:54.473Z,12.26
2023-04-09T03:20:22.362Z,12.31
2023-04-09T03:22:50.382Z,12.40
2023-04-09T03:25:26.854Z,12.29
2023-04-09T03:27:55.613Z,12.10
2023-04-09T03:30:32.940Z,12.20
2023-04-09T03:33:03.164Z,12.20
2023-04-09T03:35:34.541Z,12.22
2023-04-09T03:38:02.283Z,12.30
2023-04-09T03:40:30.266Z,12.08
2023-04-09T03:42:57.599Z,11.87
2023-04-09T03:45:25.577Z,11.84
2023-04-09T03:47:57.820Z,11.82
2023-04-09T03:50:26.308Z,11.91
2023-04-09T03:52:56.347Z,11.86
2023-04-09T03:55:24.206Z,11.86
2023-04-09T03:57:52.904Z,11.75
2023-04-09T04:00:26.319Z,11.67
2023-04-09T04:03:19.922Z,11.74
2023-04-09T04:06:04.824Z,11.67
2023-04-09T04:08:44.729Z,11.76
2023-04-09T04:11:12.582Z,11.86
2023-04-09T04:13:40.682Z,11.87
2023-04-09T04:16:11.002Z,11.85
2023-04-09T04:18:40.691Z,11.95
2023-04-09T04:21:12.836Z,11.96
2023-04-09T04:23:41.994Z,11.97
2023-04-09T04:26:18.600Z,11.98
2023-04-09T04:28:47.036Z,11.92
2023-04-09T04:31:25.995Z,11.76
2023-04-09T04:33:56.552Z,11.78
2023-04-09T04:36:23.861Z,11.54
2023-04-09T04:38:53.355Z,11.43
2023-04-09T04:41:50.354Z,11.46
2023-04-09T04:44:23.006Z,11.49
2023-04-09T04:46:56.067Z,11.45
2023-04-09T04:49:24.198Z,11.48
2023-04-09T04:51:52.572Z,11.50
2023-04-09T04:54:20.280Z,11.48
2023-04-09T04:56:54.432Z,11.46
2023-04-09T04:59:41.141Z,11.48
2023-04-09T05:02:11.122Z,11.49
2023-04-09T05:05:07.775Z,11.62
2023-04-09T05:07:41.578Z,11.73
2023-04-09T05:10:09.945Z,11.70
2023-04-09T05:12:41.494Z,11.73
2023-04-09T05:15:10.583Z,11.77
2023-04-09T05:17:38.786Z,11.77
2023-04-09T05:20:08.544Z,11.80
2023-04-09T05:22:46.441Z,11.74
2023-04-09T05:25:16.346Z,11.72
2023-04-09T05:27:45.373Z,11.77
2023-04-09T05:30:13.712Z,11.77
2023-04-09T05:32:42.330Z,11.75
2023-04-09T05:35:09.724Z,11.95
2023-04-09T05:37:40.941Z,11.91
2023-04-09T05:40:08.925Z,12.12
2023-04-09T05:42:36.967Z,12.18
2023-04-09T05:45:10.885Z,12.20
2023-04-09T05:47:45.613Z,11.97
2023-04-09T05:50:18.881Z,11.82
2023-04-09T05:52:46.696Z,11.85
2023-04-09T05:55:15.489Z,11.93
2023-04-09T05:57:54.436Z,12.11
2023-04-09T06:00:22.414Z,11.89
2023-04-09T06:02:51.638Z,11.75
2023-04-09T06:05:18.974Z,11.94
2023-04-09T06:07:48.206Z,12.03
2023-04-09T06:10:15.976Z,11.80
2023-04-09T06:12:43.283Z,11.86
2023-04-09T06:15:11.020Z,11.97
2023-04-09T06:17:38.912Z,12.15
2023-04-09T06:20:07.006Z,12.21
2023-04-09T06:22:34.721Z,12.33
2023-04-09T06:25:02.469Z,12.46
2023-04-09T06:27:29.714Z,12.16
2023-04-09T06:29:56.983Z,12.21
2023-04-09T06:32:24.420Z,12.28
2023-04-09T06:34:51.710Z,12.18
2023-04-09T06:37:19.047Z,12.36
2023-04-09T06:39:58.144Z,12.30
2023-04-09T06:42:28.767Z,12.21
2023-04-09T06:45:10.714Z,12.51
2023-04-09T06:47:38.507Z,12.90
2023-04-09T06:50:06.627Z,12.67
2023-04-09T06:52:34.477Z,12.75
2023-04-09T06:55:02.201Z,12.51
2023-04-09T06:57:29.619Z,12.87
2023-04-09T06:59:57.580Z,13.35
2023-04-09T07:02:25.182Z,13.16
2023-04-09T07:04:53.078Z,13.06
2023-04-09T07:07:21.072Z,13.33
2023-04-09T07:09:49.093Z,13.49
2023-04-09T07:12:26.145Z,13.65
2023-04-09T07:14:53.866Z,14.07
2023-04-09T07:17:21.783Z,13.94
2023-04-09T07:19:51.608Z,13.89
2023-04-09T07:22:18.972Z,14.18
2023-04-09T07:24:47.106Z,14.21
2023-04-09T07:27:14.931Z,14.53
2023-04-09T07:29:44.105Z,14.56
2023-04-09T07:32:11.884Z,14.29
2023-04-09T07:34:39.586Z,14.28
2023-04-09T07:37:06.989Z,14.49
2023-04-09T07:39:35.276Z,14.94
2023-04-09T07:42:04.508Z,15.13
2023-04-09T07:44:35.001Z,14.55
2023-04-09T07:47:02.803Z,14.63
2023-04-09T07:49:30.349Z,14.58
2023-04-09T07:51:59.270Z,15.09
2023-04-09T07:54:28.498Z,15.08
2023-04-09T07:56:56.684Z,14.72
2023-04-09T07:59:24.833Z,15.04
2023-04-09T08:01:52.604Z,15.30
2023-04-09T08:04:20.231Z,15.28
2023-04-09T08:06:51.137Z,15.41
2023-04-09T08:09:20.304Z,15.51
2023-04-09T08:11:47.864Z,15.26
2023-04-09T08:14:16.256Z,14.98
2023-04-09T08:16:44.934Z,14.88
2023-04-09T08:19:13.452Z,15.01
2023-04-09T08:21:45.103Z,15.30
2023-04-09T08:24:13.135Z,14.73
2023-04-09T08:26:42.215Z,14.59
2023-04-09T08:29:10.655Z,15.06
2023-04-09T08:31:38.622Z,15.16
2023-04-09T08:34:06.616Z,15.40
2023-04-09T08:36:35.846Z,15.67
2023-04-09T08:39:04.264Z,15.64
2023-04-09T08:41:32.084Z,15.87
2023-04-09T08:44:00.869Z,16.40
2023-04-09T08:46:28.698Z,17.23
2023-04-09T08:48:57.152Z,17.00
2023-04-09T08:51:25.093Z,16.71
2023-04-09T08:53:55.549Z,16.74
2023-04-09T08:56:23.940Z,16.34
2023-04-09T08:58:51.743Z,16.98
2023-04-09T09:01:22.810Z,17.13
2023-04-09T09:04:09.009Z,17.31
2023-04-09T09:06:38.146Z,17.40
2023-04-09T09:09:09.944Z,17.65
2023-04-09T09:11:45.891Z,16.97
2023-04-09T09:14:14.246Z,16.74
2023-04-09T09:16:43.998Z,16.55
2023-04-09T09:19:27.046Z,16.82
2023-04-09T09:21:58.698Z,17.28
2023-04-09T09:24:26.329Z,16.92
2023-04-09T09:26:54.562Z,17.38
2023-04-09T09:29:22.603Z,17.88
2023-04-09T09:31:52.123Z,18.20
2023-04-09T09:34:21.313Z,18.06
2023-04-09T09:36:48.702Z,17.78
2023-04-09T09:39:17.523Z,17.70
2023-04-09T09:41:45.847Z,16.91
2023-04-09T09:44:30.676Z,18.05
2023-04-09T09:46:59.366Z,18.33
2023-04-09T09:49:26.756Z,19.29
2023-04-09T09:51:57.679Z,19.69
2023-04-09T09:54:25.809Z,19.66
2023-04-09T09:56:56.098Z,19.68
2023-04-09T09:59:27.152Z,19.30
2023-04-09T10:02:01.585Z,17.87
2023-04-09T10:04:31.623Z,17.84
2023-04-09T10:07:00.497Z,18.88
2023-04-09T10:09:28.390Z,20.46
2023-04-09T10:11:57.791Z,20.04
2023-04-09T10:14:26.335Z,20.14
2023-04-09T10:16:53.793Z,20.64
2023-04-09T10:19:22.324Z,19.86
2023-04-09T10:22:16.041Z,18.13
2023-04-09T10:24:44.116Z,19.20
2023-04-09T10:27:15.055Z,17.89
2023-04-09T10:29:47.348Z,19.15
2023-04-09T10:32:21.212Z,20.53
2023-04-09T10:34:50.590Z,20.35
2023-04-09T10:37:23.702Z,19.12
2023-04-09T10:39:52.632Z,20.96
2023-04-09T10:42:24.873Z,20.55
2023-04-09T10:45:08.919Z,20.29
2023-04-09T10:47:38.473Z,20.62
2023-04-09T10:50:19.800Z,20.75
2023-04-09T10:52:47.982Z,22.95
2023-04-09T10:55:31.498Z,21.91
2023-04-09T10:57:58.933Z,21.28
2023-04-09T11:00:26.254Z,21.06
2023-04-09T11:02:57.359Z,22.34
2023-04-09T11:05:24.873Z,22.31
2023-04-09T11:07:55.214Z,23.64
2023-04-09T11:10:23.249Z,24.06
2023-04-09T11:12:51.170Z,21.83
2023-04-09T11:15:19.934Z,20.68
2023-04-09T11:17:49.135Z,20.26
2023-04-09T11:20:26.047Z,20.05
2023-04-09T11:22:54.992Z,21.35
2023-04-09T11:25:26.759Z,23.64
2023-04-09T11:27:54.880Z,22.78
2023-04-09T11:30:22.749Z,22.09
2023-04-09T11:32:51.463Z,22.24
2023-04-09T11:35:20.621Z,23.57
2023-04-09T11:37:49.186Z,24.75
2023-04-09T11:40:21.395Z,24.90
2023-04-09T11:42:50.018Z,25.07
2023-04-09T11:45:18.170Z,24.17
2023-04-09T11:47:47.304Z,24.93
2023-04-09T11:50:16.475Z,24.54
2023-04-09T11:52:45.734Z,23.83
2023-04-09T11:55:22.851Z,22.60
2023-04-09T11:57:51.792Z,22.38
2023-04-09T12:00:19.734Z,23.09
2023-04-09T12:02:48.167Z,23.06
2023-04-09T12:05:22.929Z,25.94
2023-04-09T12:07:56.306Z,24.10
2023-04-09T12:10:27.335Z,26.35
2023-04-09T12:12:55.476Z,26.31
2023-04-09T12:15:27.205Z,27.77
2023-04-09T12:17:56.196Z,28.72
2023-04-09T12:20:30.498Z,27.95
2023-04-09T12:23:00.336Z,28.15
2023-04-09T12:25:28.827Z,28.09
2023-04-09T12:27:56.660Z,26.10
2023-04-09T12:30:24.926Z,25.35
2023-04-09T12:32:52.527Z,25.27
2023-04-09T12:35:20.549Z,25.21
2023-04-09T12:37:47.897Z,24.33
2023-04-09T12:40:15.509Z,26.41
2023-04-09T12:42:44.291Z,27.11
2023-04-09T12:45:13.335Z,26.69
2023-04-09T12:47:41.510Z,25.86
2023-04-09T12:50:09.819Z,26.21
2023-04-09T12:52:37.270Z,26.57
2023-04-09T12:55:05.918Z,28.07
2023-04-09T12:57:33.576Z,26.69
2023-04-09T13:00:01.489Z,26.19
2023-04-09T13:02:29.029Z,24.34
2023-04-09T13:04:57.668Z,25.94
2023-04-09T13:07:26.592Z,24.75
2023-04-09T13:09:53.863Z,23.03
2023-04-09T13:12:21.596Z,21.33
2023-04-09T13:14:49.650Z,20.23
2023-04-09T13:17:17.668Z,20.64
2023-04-09T13:19:46.188Z,20.73
2023-04-09T13:22:13.772Z,20.75
2023-04-09T13:24:43.265Z,22.14
2023-04-09T13:27:11.399Z,22.51
2023-04-09T13:29:39.364Z,22.28
2023-04-09T13:32:11.164Z,24.70
2023-04-09T13:34:39.841Z,22.66
2023-04-09T13:37:07.535Z,23.35
2023-04-09T13:39:34.850Z,21.67
2023-04-09T13:42:07.153Z,22.54
2023-04-09T13:44:42.506Z,22.26
2023-04-09T13:47:12.940Z,22.61
2023-04-09T13:49:40.831Z,22.32
2023-04-09T13:52:08.268Z,22.42
2023-04-09T13:54:36.167Z,23.72
2023-04-09T13:57:04.004Z,23.75
2023-04-09T13:59:32.220Z,25.99
2023-04-09T14:01:59.649Z,26.83
2023-04-09T14:04:27.743Z,26.42
2023-04-09T14:06:55.140Z,25.51
2023-04-09T14:09:22.483Z,23.33
2023-04-09T14:11:50.986Z,23.14
2023-04-09T14:14:19.978Z,23.53
2023-04-09T14:16:48.442Z,22.97
2023-04-09T14:19:17.103Z,22.09
2023-04-09T14:21:44.554Z,22.53
2023-04-09T14:24:11.874Z,23.05
2023-04-09T14:26:39.230Z,24.75
2023-04-09T14:29:06.827Z,26.55
2023-04-09T14:31:35.392Z,25.23
2023-04-09T14:34:03.763Z,23.99
2023-04-09T14:36:32.279Z,23.55
2023-04-09T14:39:00.217Z,24.40
2023-04-09T14:41:27.949Z,24.31
2023-04-09T14:43:55.348Z,22.94
2023-04-09T14:46:23.133Z,21.91
2023-04-09T14:48:50.763Z,21.06
2023-04-09T14:51:18.627Z,20.69
2023-04-09T14:53:45.906Z,19.96
2023-04-09T14:56:13.293Z,19.35
2023-04-09T14:58:41.069Z,19.96
2023-04-09T15:01:09.087Z,20.25
2023-04-09T15:03:36.783Z,19.59
2023-04-09T15:06:05.307Z,19.73
2023-04-09T15:08:32.691Z,20.15
2023-04-09T15:11:00.778Z,19.92
2023-04-09T15:13:28.606Z,19.50
2023-04-09T15:15:56.782Z,20.00
2023-04-09T15:18:24.278Z,19.79
2023-04-09T15:20:52.004Z,19.89
2023-04-09T15:23:19.863Z,19.66
2023-04-09T15:25:47.320Z,18.81
2023-04-09T15:28:15.200Z,18.59
2023-04-09T15:30:42.706Z,18.23
2023-04-09T15:33:10.108Z,17.88
2023-04-09T15:35:37.791Z,17.61
2023-04-09T15:38:05.689Z,17.49
2023-04-09T15:40:33.538Z,17.51
2023-04-09T15:43:01.107Z,17.14
2023-04-09T15:45:28.866Z,17.27
2023-04-09T15:47:56.733Z,17.51
2023-04-09T15:50:24.641Z,17.12
2023-04-09T15:52:51.974Z,17.30
2023-04-09T15:55:19.557Z,17.22
2023-04-09T15:57:47.392Z,17.23
2023-04-09T16:00:16.006Z,17.19
2023-04-09T16:02:43.804Z,17.09
2023-04-09T16:05:11.245Z,16.74
2023-04-09T16:07:39.786Z,17.07
2023-04-09T16:10:08.000Z,16.69
2023-04-09T16:12:35.847Z,16.56
2023-04-09T16:15:03.696Z,16.40
2023-04-09T16:17:34.545Z,16.10
2023-04-09T16:20:08.574Z,16.20
2023-04-09T16:22:36.222Z,15.53
2023-04-09T16:25:04.265Z,15.40
2023-04-09T16:27:32.086Z,15.40
2023-04-09T16:29:59.466Z,15.03
2023-04-09T16:32:27.494Z,15.54
2023-04-09T16:34:56.125Z,15.35
2023-04-09T16:37:23.846Z,15.39
2023-04-09T16:39:52.011Z,15.23
2023-04-09T16:42:19.395Z,15.34
2023-04-09T16:44:47.457Z,15.56
2023-04-09T16:47:15.026Z,15.78
2023-04-09T16:49:43.188Z,16.01
2023-04-09T16:52:10.752Z,15.59
2023-04-09T16:54:38.066Z,15.68
2023-04-09T16:57:06.172Z,15.26
2023-04-09T16:59:34.519Z,15.22
2023-04-09T17:02:02.607Z,15.20
2023-04-09T17:04:30.246Z,15.24
2023-04-09T17:06:57.641Z,15.09
2023-04-09T17:09:25.193Z,15.17
2023-04-09T17:11:53.397Z,14.99
2023-04-09T17:14:21.612Z,15.06
2023-04-09T17:16:52.817Z,15.14
2023-04-09T17:19:20.118Z,15.38
2023-04-09T17:21:48.040Z,15.09
2023-04-09T17:24:15.413Z,14.88
2023-04-09T17:26:43.263Z,14.60
2023-04-09T17:29:11.066Z,14.75
2023-04-09T17:31:38.789Z,14.55
2023-04-09T17:34:06.328Z,14.50
2023-04-09T17:36:33.673Z,14.48
2023-04-09T17:39:01.797Z,14.55
2023-04-09T17:41:29.617Z,14.61
2023-04-09T17:43:58.228Z,14.62
2023-04-09T17:46:26.163Z,14.93
2023-04-09T17:48:54.266Z,14.68
2023-04-09T17:51:21.772Z,14.60
2023-04-09T17:53:49.516Z,14.73
2023-04-09T17:56:18.285Z,14.89
2023-04-09T17:58:46.983Z,14.63
2023-04-09T18:01:14.995Z,14.72
2023-04-09T18:03:43.728Z,14.78
2023-04-09T18:06:11.950Z,14.80
2023-04-09T18:08:41.717Z,14.36
2023-04-09T18:11:13.226Z,14.52
2023-04-09T18:13:42.867Z,14.25
2023-04-09T18:16:11.297Z,14.46
2023-04-09T18:18:39.372Z,14.50
2023-04-09T18:21:07.719Z,14.53
2023-04-09T18:23:35.068Z,14.20
2023-04-09T18:26:02.461Z,14.22
2023-04-09T18:28:30.441Z,14.09
2023-04-09T18:30:58.898Z,14.09
2023-04-09T18:33:27.119Z,14.12
2023-04-09T18:35:54.856Z,14.09
2023-04-09T18:38:23.236Z,14.24
2023-04-09T18:40:50.692Z,14.02
2023-04-09T18:43:18.429Z,14.16
2023-04-09T18:45:46.278Z,14.24
2023-04-09T18:48:13.749Z,13.91
2023-04-09T18:50:41.677Z,14.05
2023-04-09T18:53:09.892Z,14.06
2023-04-09T18:55:38.401Z,14.00
2023-04-09T18:58:12.854Z,14.03
2023-04-09T19:00:40.524Z,13.93
2023-04-09T19:03:09.076Z,13.87
2023-04-09T19:05:36.930Z,13.88
2023-04-09T19:08:05.656Z,13.96
2023-04-09T19:10:33.623Z,13.89
2023-04-09T19:13:01.023Z,13.90
2023-04-09T19:15:29.534Z,13.87
2023-04-09T19:17:57.490Z,13.80
2023-04-09T19:20:25.501Z,13.78
2023-04-09T19:22:57.424Z,13.82
2023-04-09T19:25:25.142Z,13.75
2023-04-09T19:27:54.236Z,13.54
2023-04-09T19:30:21.766Z,13.77
2023-04-09T19:32:49.584Z,13.85
2023-04-09T19:35:17.681Z,13.92
2023-04-09T19:37:46.017Z,13.94
2023-04-09T19:40:16.925Z,13.94
2023-04-09T19:42:44.603Z,13.87
2023-04-09T19:45:12.542Z,13.97
2023-04-09T19:47:40.978Z,14.04
2023-04-09T19:50:08.895Z,14.00
2023-04-09T19:52:37.786Z,14.01
2023-04-09T19:55:05.937Z,13.94
2023-04-09T19:57:34.857Z,13.92
2023-04-09T20:00:03.388Z,13.78
2023-04-09T20:02:41.513Z,13.74
2023-04-09T20:05:10.498Z,13.71
2023-04-09T20:07:38.576Z,13.75
2023-04-09T20:10:06.360Z,13.79
2023-04-09T20:12:34.396Z,13.73
2023-04-09T20:15:02.094Z,13.70
2023-04-09T20:17:30.371Z,13.62
2023-04-09T20:19:58.738Z,13.76
2023-04-09T20:22:27.203Z,13.82
2023-04-09T20:24:55.492Z,13.54
2023-04-09T20:27:23.463Z,13.63
2023-04-09T20:29:50.942Z,13.61
2023-04-09T20:32:19.421Z,13.62
2023-04-09T20:34:47.240Z,13.45
2023-04-09T20:37:15.025Z,13.55
2023-04-09T20:39:43.469Z,13.37
2023-04-09T20:42:11.539Z,13.44
2023-04-09T20:44:39.550Z,13.58
2023-04-09T20:47:07.427Z,13.71
2023-04-09T20:49:35.333Z,13.57
2023-04-09T20:52:02.620Z,13.54
2023-04-09T20:54:30.900Z,13.63
2023-04-09T20:56:58.649Z,13.38
2023-04-09T20:59:27.625Z,13.36
2023-04-09T21:01:56.069Z,13.41
2023-04-09T21:04:24.459Z,13.43
2023-04-09T21:06:52.476Z,13.45
2023-04-09T21:09:20.348Z,13.40
2023-04-09T21:11:48.044Z,13.15
2023-04-09T21:14:15.845Z,13.00
2023-04-09T21:16:43.257Z,12.91
2023-04-09T21:19:11.127Z,13.00
2023-04-09T21:21:38.454Z,13.00
2023-04-09T21:24:06.684Z,12.96
2023-04-09T21:26:49.288Z,13.03
2023-04-09T21:29:19.705Z,12.96
2023-04-09T21:31:47.984Z,13.03
2023-04-09T21:34:16.129Z,13.03
2023-04-09T21:36:45.500Z,12.76
2023-04-09T21:39:13.429Z,12.75
2023-04-09T21:41:40.701Z,12.91
2023-04-09T21:44:08.784Z,12.88
2023-04-09T21:46:40.879Z,12.67
2023-04-09T21:49:08.778Z,12.77
2023-04-09T21:51:36.129Z,12.90
2023-04-09T21:54:09.777Z,12.89
2023-04-09T21:56:38.087Z,12.76
2023-04-09T21:59:06.257Z,12.70
2023-04-09T22:01:35.131Z,12.65
2023-04-09T22:04:02.863Z,12.59
2023-04-09T22:06:31.183Z,12.75
2023-04-09T22:08:59.091Z,12.70
2023-04-09T22:11:30.707Z,12.85
2023-04-09T22:13:58.801Z,12.77
2023-04-09T22:16:26.377Z,12.63
2023-04-09T22:18:54.628Z,12.66
2023-04-09T22:21:23.220Z,12.70
2023-04-09T22:23:51.107Z,12.83
2023-04-09T22:26:19.000Z,12.90
2023-04-09T22:28:46.426Z,12.78
2023-04-09T22:31:14.237Z,12.75
2023-04-09T22:33:41.963Z,12.62
2023-04-09T22:36:10.383Z,12.66
2023-04-09T22:38:38.415Z,12.50
2023-04-09T22:41:06.419Z,12.56
2023-04-09T22:43:33.824Z,12.46
2023-04-09T22:46:02.401Z,12.54
2023-04-09T22:48:30.948Z,12.53
2023-04-09T22:50:58.728Z,12.42
2023-04-09T22:53:26.748Z,12.62
2023-04-09T22:55:58.071Z,12.60
2023-04-09T22:58:26.243Z,12.65
2023-04-09T23:00:53.639Z,12.63
2023-04-09T23:03:21.107Z,12.64
2023-04-09T23:05:48.479Z,12.71
2023-04-09T23:08:16.184Z,12.56
2023-04-09T23:10:43.560Z,12.48
2023-04-09T23:13:13.860Z,12.50
2023-04-09T23:15:41.696Z,12.53
2023-04-09T23:18:09.827Z,12.64
2023-04-09T23:20:37.358Z,12.66
2023-04-09T23:23:05.438Z,12.58
2023-04-09T23:25:32.802Z,12.51
2023-04-09T23:28:00.061Z,12.61
2023-04-09T23:30:27.894Z,12.52
2023-04-09T23:32:57.533Z,12.62
2023-04-09T23:35:25.603Z,12.60
2023-04-09T23:37:53.885Z,12.63
2023-04-09T23:40:21.650Z,12.49
2023-04-09T23:42:50.325Z,12.44
2023-04-09T23:45:17.800Z,12.59
2023-04-09T23:47:46.064Z,12.56
2023-04-09T23:50:13.486Z,12.45
2023-04-09T23:52:46.634Z,12.52
2023-04-09T23:55:14.187Z,12.56
2023-04-09T23:57:43.610Z,12.48
